Arrival - Weather - Departure
Ostend Airport (EBOS - OST)
This page refreshes every 5 minutes.
Contact New Style NL | EN  Best Resolution: 1280x1024

Page last updated at 17:12:06
WEER EBOS TEST PAGE WEER
The report was made at 15:50 UTC (Now: 16:12:06 UTC)
The wind blows with a force of 11 km/h and is from the east
The sight is 10 000 meter Runway 8 in use
The temperature is 01 °C The dew point is -02 °C
The humidity is 80 %
The air pressure is 1024 HPa
The weather is now Ceiling And Visibility OKay
The next two hours there is no significant change
2016/12/04 15:50 EBOS 041550Z 07006KT CAVOK 01/M02 Q1024 NOSIG
METAR EBOS TAF EBOS Info METAR
© Bert Sanders

 
Interesting websites about EBOS
EBOS-Spotting
REPLO
Website airport
Other interesting websites
Spottinggroup RS06
Android app on Google Play